Time;durP1;ratioP1;P1;durP2;ratioP2;P2;SDS_P1;SDS_P2;PMS_P1;PMS_P2;Temp;Humidity;BMP_temperature;BMP_pressure;BME280_temperature;BME280_humidity;BME280_pressure;Samples;Min_cycle;Max_cycle;Signal;HPM_P1;HPM_P2
2022/05/22 00:01:03;;;;;;;;;;;;;;;22.90;46.44;101247.00;5014264;28;4170;-57
2022/05/22 00:03:30;;;;;;;;;;;;;;;22.90;46.19;101243.38;5017025;28;5300;-58
2022/05/22 00:05:56;;;;;;;;;;;;;;;22.90;46.41;101249.91;5015923;28;4012;-57
2022/05/22 00:08:22;;;;;;;;;;;;;;;22.90;46.42;101249.91;5014551;28;5262;-57
2022/05/22 00:10:49;;;;;;;;;;;;;;;22.90;46.07;101244.13;5015907;28;5499;-58
2022/05/22 00:13:15;;;;;;;;;;;;;;;22.90;46.06;101238.34;5013579;28;4235;-58
2022/05/22 00:16:36;;;;;;;;;;;;;;;22.90;46.52;101240.50;5009858;28;4128;-58
2022/05/22 00:18:28;;;;;;;;;;;;;;;22.88;46.52;101235.38;5007780;28;5347;-57
2022/05/22 00:20:54;;;;;;;;;;;;;;;22.89;46.44;101236.88;5014139;28;5538;-58
2022/05/22 00:23:21;;;;;;;;;;;;;;;22.89;46.40;101244.81;5015322;28;5212;-50
2022/05/22 00:25:47;;;;;;;;;;;;;;;22.88;46.39;101238.25;5016415;28;4405;-57
2022/05/22 00:28:13;;;;;;;;;;;;;;;22.88;46.26;101237.53;5013205;28;5300;-58
2022/05/22 00:30:40;;;;;;;;;;;;;;;22.88;46.40;101223.09;5011926;28;5248;-57
2022/05/22 00:33:06;;;;;;;;;;;;;;;22.87;46.54;101231.00;5014950;28;4121;-57
2022/05/22 00:35:33;;;;;;;;;;;;;;;22.88;46.18;101228.88;5014402;28;4150;-57
2022/05/22 00:37:59;;;;;;;;;;;;;;;22.87;46.13;101228.13;5015396;28;4280;-57
2022/05/22 00:40:26;;;;;;;;;;;;;;;22.87;46.32;101242.56;5021742;28;4172;-55
2022/05/22 00:42:52;;;;;;;;;;;;;;;22.87;46.10;101230.28;5023983;28;4217;-57
2022/05/22 00:45:19;;;;;;;;;;;;;;;22.87;46.38;101227.38;5019587;28;5309;-58
2022/05/22 00:47:50;;;;;;;;;;;;;;;22.87;46.30;101228.13;5019965;28;4148;-57
2022/05/22 00:50:17;;;;;;;;;;;;;;;22.86;46.18;101226.66;5021064;28;4060;-57
2022/05/22 00:52:44;;;;;;;;;;;;;;;22.86;46.50;101225.88;5032831;28;4187;-57
2022/05/22 00:55:18;;;;;;;;;;;;;;;22.86;46.36;101218.00;5014327;28;4264;-57
2022/05/22 00:57:46;;;;;;;;;;;;;;;22.87;46.48;101218.72;4997958;28;4252;-57
2022/05/22 01:00:13;;;;;;;;;;;;;;;22.85;46.15;101218.63;5008339;28;4299;-57
2022/05/22 01:05:29;;;;;;;;;;;;;;;22.86;46.48;101225.88;5010686;28;4244;-58
2022/05/22 01:07:56;;;;;;;;;;;;;;;22.86;46.08;101228.78;5008843;28;4060;-57
2022/05/22 01:10:22;;;;;;;;;;;;;;;22.85;46.19;101230.94;5024573;28;4212;-57
2022/05/22 01:12:49;;;;;;;;;;;;;;;22.85;46.34;101236.69;5007017;28;4057;-58
2022/05/22 01:15:15;;;;;;;;;;;;;;;22.85;46.36;101233.06;5011796;28;4197;-57
2022/05/22 01:17:42;;;;;;;;;;;;;;;22.84;46.48;101229.44;5021637;28;5254;-57
2022/05/22 01:20:09;;;;;;;;;;;;;;;22.84;46.29;101229.44;5008729;28;4077;-58
2022/05/22 01:22:35;;;;;;;;;;;;;;;22.83;46.32;101230.84;5009711;28;5270;-57
2022/05/22 01:25:01;;;;;;;;;;;;;;;22.84;46.21;101226.56;5010606;28;4161;-57
2022/05/22 01:27:28;;;;;;;;;;;;;;;22.84;46.31;101225.78;5010827;28;4238;-57
2022/05/22 01:30:04;;;;;;;;;;;;;;;22.85;46.14;101230.19;5016007;28;4313;-58
2022/05/22 01:32:33;;;;;;;;;;;;;;;22.84;46.45;101226.56;5023974;28;5292;-57
2022/05/22 01:35:02;;;;;;;;;;;;;;;22.83;46.34;101225.06;5023279;28;4232;-57
2022/05/22 01:37:29;;;;;;;;;;;;;;;22.83;46.42;101222.19;5037938;28;5345;-58
2022/05/22 01:39:55;;;;;;;;;;;;;;;22.84;46.22;101231.56;5024501;28;4117;-57
2022/05/22 01:42:21;;;;;;;;;;;;;;;22.83;46.20;101224.31;5023984;28;5488;-57
2022/05/22 01:44:48;;;;;;;;;;;;;;;22.83;46.16;101215.66;5034435;28;4044;-57
2022/05/22 01:47:14;;;;;;;;;;;;;;;22.81;46.41;101216.31;5027736;28;4313;-57
2022/05/22 01:49:41;;;;;;;;;;;;;;;22.84;46.22;101223.69;5017114;28;4227;-58
2022/05/22 01:52:09;;;;;;;;;;;;;;;22.83;46.38;101219.28;5025881;28;4192;-57
2022/05/22 01:54:36;;;;;;;;;;;;;;;22.83;46.14;101227.94;5015305;28;4264;-58
2022/05/22 01:57:03;;;;;;;;;;;;;;;22.83;46.08;101227.94;5020420;28;4142;-58
2022/05/22 01:59:29;;;;;;;;;;;;;;;22.83;46.22;101221.44;5024771;28;4161;-58
2022/05/22 02:02:14;;;;;;;;;;;;;;;22.83;46.05;101221.44;5030281;28;4226;-57
2022/05/22 02:04:41;;;;;;;;;;;;;;;22.83;46.39;101227.22;5021019;28;4238;-58
2022/05/22 02:09:55;;;;;;;;;;;;;;;22.82;46.17;101222.84;5021076;28;4916;-57
2022/05/22 02:12:23;;;;;;;;;;;;;;;22.82;46.29;101220.69;5028138;28;4261;-58
2022/05/22 02:14:50;;;;;;;;;;;;;;;22.82;46.22;101223.59;5018392;28;4341;-57
2022/05/22 02:17:17;;;;;;;;;;;;;;;22.82;45.96;101214.94;5031354;28;4212;-57
2022/05/22 02:19:48;;;;;;;;;;;;;;;22.81;46.39;101204.75;5019578;28;6317;-58
2022/05/22 02:22:29;;;;;;;;;;;;;;;22.80;46.28;101203.28;5030468;28;4316;-57
2022/05/22 02:24:56;;;;;;;;;;;;;;;22.81;46.39;101207.66;5013648;28;6362;-57
2022/05/22 02:27:22;;;;;;;;;;;;;;;22.81;46.35;101201.88;5017404;28;5519;-57
2022/05/22 02:29:49;;;;;;;;;;;;;;;22.79;46.44;101210.44;5018264;28;4144;-56
2022/05/22 02:32:15;;;;;;;;;;;;;;;22.79;46.33;101204.66;5031927;28;4238;-58
2022/05/22 02:34:42;;;;;;;;;;;;;;;22.80;46.32;101206.19;5031679;28;4285;-57
2022/05/22 02:37:09;;;;;;;;;;;;;;;22.79;46.39;101204.66;5022094;28;4221;-56
2022/05/22 02:39:35;;;;;;;;;;;;;;;22.78;46.40;101206.09;5022396;28;4192;-57
2022/05/22 02:42:22;;;;;;;;;;;;;;;22.78;46.18;101211.88;5018701;28;5413;-57
2022/05/22 02:44:48;;;;;;;;;;;;;;;22.77;46.38;101213.28;5024868;28;4147;-57
2022/05/22 02:47:17;;;;;;;;;;;;;;;22.76;46.20;101212.50;5023208;28;4275;-57
2022/05/22 02:49:43;;;;;;;;;;;;;;;22.77;46.42;101213.28;5032528;28;4190;-57
2022/05/22 02:52:10;;;;;;;;;;;;;;;22.77;46.42;101214.00;5017951;28;4255;-58
2022/05/22 02:54:36;;;;;;;;;;;;;;;22.76;46.43;101211.78;5018908;28;4139;-57
2022/05/22 02:57:09;;;;;;;;;;;;;;;22.75;46.43;101211.03;5025233;28;4980;-57
2022/05/22 02:59:37;;;;;;;;;;;;;;;22.75;46.39;101211.03;5021106;28;5244;-58
2022/05/22 03:02:26;;;;;;;;;;;;;;;22.74;46.56;101203.03;4995869;28;5225;-57
2022/05/22 03:04:53;;;;;;;;;;;;;;;22.75;46.03;101210.31;5017094;28;4219;-57
2022/05/22 03:07:20;;;;;;;;;;;;;;;22.74;46.45;101208.81;5019344;28;5429;-57
2022/05/22 03:09:48;;;;;;;;;;;;;;;22.74;46.40;101198.00;5029621;28;5223;-58
2022/05/22 03:12:15;;;;;;;;;;;;;;;22.73;46.21;101207.31;5023162;28;4033;-57
2022/05/22 03:14:44;;;;;;;;;;;;;;;22.72;46.46;101200.81;5017817;28;5437;-57
2022/05/22 03:17:11;;;;;;;;;;;;;;;22.73;46.51;101195.78;5013472;28;4137;-57
2022/05/22 03:19:54;;;;;;;;;;;;;;;22.72;46.25;101205.81;5019873;28;4371;-58
2022/05/22 03:22:21;;;;;;;;;;;;;;;22.70;46.57;101194.94;5031379;28;4318;-55
2022/05/22 03:24:48;;;;;;;;;;;;;;;22.71;46.31;101192.81;5017209;28;4231;-59
2022/05/22 03:27:15;;;;;;;;;;;;;;;22.70;46.24;101197.06;5015701;28;4176;-58
2022/05/22 03:29:43;;;;;;;;;;;;;;;22.70;46.25;101205.72;5019287;28;5477;-57
2022/05/22 03:32:11;;;;;;;;;;;;;;;22.69;46.43;101201.38;5031949;28;4140;-58
2022/05/22 03:34:39;;;;;;;;;;;;;;;22.70;46.37;101202.84;5018214;28;5595;-57
2022/05/22 03:37:05;;;;;;;;;;;;;;;22.68;46.59;101205.69;5022712;28;5014;-57
2022/05/22 03:39:32;;;;;;;;;;;;;;;22.68;46.59;101199.91;5015715;28;4290;-57
2022/05/22 03:42:01;;;;;;;;;;;;;;;22.68;46.38;101191.25;5021548;28;4204;-57
2022/05/22 03:44:27;;;;;;;;;;;;;;;22.67;46.54;101204.16;5026305;28;4288;-57
2022/05/22 03:46:54;;;;;;;;;;;;;;;22.67;46.34;101199.13;5014892;28;4262;-57
2022/05/22 03:49:26;;;;;;;;;;;;;;;22.66;46.54;101194.78;5026757;28;4167;-57
2022/05/22 03:51:55;;;;;;;;;;;;;;;22.68;46.60;101211.44;5029774;28;5212;-57
2022/05/22 03:54:22;;;;;;;;;;;;;;;22.68;46.69;101191.25;5010092;28;4205;-58
2022/05/22 03:56:53;;;;;;;;;;;;;;;22.65;46.38;101189.66;5018144;28;4440;-58
2022/05/22 03:59:22;;;;;;;;;;;;;;;22.65;46.52;101196.16;5018670;28;4508;-58
2022/05/22 04:01:49;;;;;;;;;;;;;;;22.65;46.38;101193.28;5029528;28;4234;-58
2022/05/22 04:04:17;;;;;;;;;;;;;;;22.64;46.52;101194.69;5028583;28;5468;-58
2022/05/22 04:06:43;;;;;;;;;;;;;;;22.64;46.57;101202.59;5016639;28;6348;-57
2022/05/22 04:09:13;;;;;;;;;;;;;;;22.65;46.69;101198.31;5020174;28;4153;-58
2022/05/22 04:11:56;;;;;;;;;;;;;;;22.64;46.39;101202.59;5031183;28;4209;-57
2022/05/22 04:14:22;;;;;;;;;;;;;;;22.64;46.45;101205.50;5015743;28;5298;-58
2022/05/22 04:16:57;;;;;;;;;;;;;;;22.63;46.62;101210.53;5020584;28;4185;-57
2022/05/22 04:19:23;;;;;;;;;;;;;;;22.63;46.64;101201.09;5014121;28;5276;-57
2022/05/22 04:21:50;;;;;;;;;;;;;;;22.63;46.57;101204.00;5030934;28;4129;-58
2022/05/22 04:27:08;;;;;;;;;;;;;;;22.63;46.36;101209.78;5029629;28;4088;-58
2022/05/22 04:29:35;;;;;;;;;;;;;;;22.63;46.59;101215.53;5017489;28;5316;-57
2022/05/22 04:32:01;;;;;;;;;;;;;;;22.62;46.48;101214.06;5016576;28;4216;-58
2022/05/22 04:34:34;;;;;;;;;;;;;;;22.61;46.57;101219.09;5018504;28;4182;-58
2022/05/22 04:37:08;;;;;;;;;;;;;;;22.61;46.74;101224.88;5018091;28;4085;-58
2022/05/22 04:39:41;;;;;;;;;;;;;;;22.62;46.34;101231.38;5021224;28;4197;-57
2022/05/22 04:42:11;;;;;;;;;;;;;;;22.62;46.39;101231.38;5018955;28;4195;-57
2022/05/22 04:44:37;;;;;;;;;;;;;;;22.62;46.55;101231.38;5016202;28;5257;-57
2022/05/22 04:47:26;;;;;;;;;;;;;;;22.62;46.68;101237.16;5016641;28;5647;-55
2022/05/22 04:50:12;;;;;;;;;;;;;;;22.61;46.59;101235.66;5013850;28;4391;-57
2022/05/22 04:52:58;;;;;;;;;;;;;;;22.62;46.65;101231.38;5014416;28;4196;-58
2022/05/22 04:55:25;;;;;;;;;;;;;;;22.61;46.46;101230.66;5016891;28;5260;-58
2022/05/22 04:57:51;;;;;;;;;;;;;;;22.62;46.42;101234.28;5019535;28;3996;-57
2022/05/22 05:00:17;;;;;;;;;;;;;;;22.61;46.66;101242.19;5019856;28;4100;-57
2022/05/22 05:02:57;;;;;;;;;;;;;;;22.61;46.67;101244.31;5016376;28;5538;-57
2022/05/22 05:05:23;;;;;;;;;;;;;;;22.59;46.47;101245.72;5025729;28;5564;-57
2022/05/22 05:07:50;;;;;;;;;;;;;;;22.61;46.64;101241.44;5019596;28;4167;-57
2022/05/22 05:10:37;;;;;;;;;;;;;;;22.61;46.41;101238.53;5017337;28;4126;-57
2022/05/22 05:13:19;;;;;;;;;;;;;;;22.59;46.66;101234.19;5021414;28;4221;-57
2022/05/22 05:15:45;;;;;;;;;;;;;;;22.59;46.79;101222.63;5012895;28;4179;-57
2022/05/22 05:18:19;;;;;;;;;;;;;;;22.59;46.67;101234.19;5019606;28;4253;-57
2022/05/22 05:20:47;;;;;;;;;;;;;;;22.61;46.77;101229.88;5025260;28;4141;-57
2022/05/22 05:23:15;;;;;;;;;;;;;;;22.58;46.58;101235.56;5016799;28;4465;-57
2022/05/22 05:25:46;;;;;;;;;;;;;;;22.59;46.66;101231.28;5018552;28;6109;-57
2022/05/22 05:28:13;;;;;;;;;;;;;;;22.59;46.46;101225.53;5029829;28;5270;-57
2022/05/22 05:30:39;;;;;;;;;;;;;;;22.58;46.73;101238.44;5019035;28;4152;-57
2022/05/22 05:33:07;;;;;;;;;;;;;;;22.58;46.78;101235.56;5030697;28;4189;-57
2022/05/22 05:35:52;;;;;;;;;;;;;;;22.58;46.57;101243.50;5018985;28;4150;-57
2022/05/22 05:38:34;;;;;;;;;;;;;;;22.57;46.67;101242.75;5018226;28;4196;-57
2022/05/22 05:41:36;;;;;;;;;;;;;;;22.56;46.58;101241.28;5025123;28;5365;-57
2022/05/22 05:44:05;;;;;;;;;;;;;;;22.57;46.51;101242.00;5021050;28;4185;-57
2022/05/22 05:46:37;;;;;;;;;;;;;;;22.55;46.50;101239.78;5032340;28;4192;-57
2022/05/22 05:49:09;;;;;;;;;;;;;;;22.56;46.77;101254.94;5017481;28;4331;-57
2022/05/22 05:51:37;;;;;;;;;;;;;;;22.55;46.62;101244.81;5033782;28;4052;-57
2022/05/22 05:54:04;;;;;;;;;;;;;;;22.55;46.58;101241.91;5021988;28;4064;-57
2022/05/22 05:56:49;;;;;;;;;;;;;;;22.54;46.59;101238.31;5014233;28;5550;-57
2022/05/22 05:59:25;;;;;;;;;;;;;;;22.54;46.71;101238.31;5016278;28;4299;-57
2022/05/22 06:02:04;;;;;;;;;;;;;;;22.49;46.90;101247.41;5021525;28;4264;-56
2022/05/22 06:04:30;;;;;;;;;;;;;;;22.46;47.03;101246.59;5012679;28;4379;-71
2022/05/22 06:06:57;;;;;;;;;;;;;;;21.26;46.54;101236.72;5013890;28;5671;-64
2022/05/22 06:09:25;;;;;;;;;;;;;;;20.78;47.49;101235.81;5018302;28;4190;-64
2022/05/22 06:11:54;;;;;;;;;;;;;;;21.01;47.53;101234.78;5014321;28;4297;-66
2022/05/22 06:14:39;;;;;;;;;;;;;;;20.71;47.54;101231.13;5019607;28;4187;-68
2022/05/22 06:17:06;;;;;;;;;;;;;;;20.36;47.85;101232.19;5013601;28;4071;-68
2022/05/22 06:19:57;;;;;;;;;;;;;;;20.27;48.25;101242.53;5013254;28;4257;-66
2022/05/22 06:22:35;;;;;;;;;;;;;;;20.18;48.08;101234.09;5031209;28;4207;-68
2022/05/22 06:25:05;;;;;;;;;;;;;;;20.17;48.00;101238.38;5019788;28;4058;-68
2022/05/22 06:27:31;;;;;;;;;;;;;;;20.12;48.24;101230.91;5011372;28;5304;-68
2022/05/22 06:30:00;;;;;;;;;;;;;;;20.31;48.02;101224.72;5015709;28;4263;-68
2022/05/22 06:32:47;;;;;;;;;;;;;;;20.18;48.02;101225.47;5022776;28;5551;-68
2022/05/22 06:35:31;;;;;;;;;;;;;;;20.13;48.22;101226.63;5017453;28;4220;-67
2022/05/22 06:41:30;;;;;;;;;;;;;;;19.85;48.83;101240.97;5028073;28;4219;-67
2022/05/22 06:44:16;;;;;;;;;;;;;;;19.57;48.82;101226.50;5013766;28;4258;-67
2022/05/22 06:47:03;;;;;;;;;;;;;;;20.05;48.21;101235.59;5019230;28;4206;-66
2022/05/22 06:49:44;;;;;;;;;;;;;;;19.48;48.69;101229.56;5012548;28;4107;-65
2022/05/22 06:52:23;;;;;;;;;;;;;;;20.22;47.73;101240.06;5012473;28;4215;-66
2022/05/22 06:55:05;;;;;;;;;;;;;;;20.48;47.36;101224.19;5001333;28;4243;-66
2022/05/22 06:57:44;;;;;;;;;;;;;;;20.57;46.98;101227.50;5011770;28;4233;-66
2022/05/22 07:00:18;;;;;;;;;;;;;;;20.63;47.10;101224.94;5020777;28;5419;-66
2022/05/22 07:03:03;;;;;;;;;;;;;;;20.67;46.92;101231.66;5001506;28;4225;-66
2022/05/22 07:05:44;;;;;;;;;;;;;;;20.62;46.71;101229.22;4999667;28;4121;-66
2022/05/22 07:08:36;;;;;;;;;;;;;;;20.63;46.63;101230.69;5015282;28;5577;-67
2022/05/22 07:11:40;;;;;;;;;;;;;;;20.64;46.88;101232.94;5003745;28;4332;-66
2022/05/22 07:14:22;;;;;;;;;;;;;;;20.64;46.89;101220.69;5012806;28;5360;-66
2022/05/22 07:17:06;;;;;;;;;;;;;;;20.65;46.54;101227.94;5013767;28;4071;-66
2022/05/22 07:19:49;;;;;;;;;;;;;;;20.68;46.64;101215.13;5018679;28;4074;-66
2022/05/22 07:22:34;;;;;;;;;;;;;;;20.75;46.34;101227.69;5014297;28;4215;-67
2022/05/22 07:25:20;;;;;;;;;;;;;;;20.79;46.26;101225.75;5011226;28;4071;-65
2022/05/22 07:28:06;;;;;;;;;;;;;;;20.80;46.36;101212.88;5013421;28;5035;-63
2022/05/22 07:30:51;;;;;;;;;;;;;;;20.85;46.34;101216.72;5010931;28;4102;-68
2022/05/22 07:33:36;;;;;;;;;;;;;;;20.93;46.26;101223.59;5014218;28;4204;-67
2022/05/22 07:36:27;;;;;;;;;;;;;;;21.00;46.16;101221.03;5022886;28;5582;-68
2022/05/22 07:39:12;;;;;;;;;;;;;;;21.07;46.12;101214.94;5010072;28;4360;-63
2022/05/22 07:41:59;;;;;;;;;;;;;;;21.08;46.11;101216.41;5014181;28;4274;-68
2022/05/22 07:44:49;;;;;;;;;;;;;;;21.11;46.28;101214.38;5012702;28;4426;-66
2022/05/22 07:47:34;;;;;;;;;;;;;;;21.13;46.21;101211.59;5009530;28;5315;-68
2022/05/22 07:50:16;;;;;;;;;;;;;;;21.17;46.17;101211.81;5022581;28;4349;-65
2022/05/22 07:53:08;;;;;;;;;;;;;;;21.21;46.09;101212.00;5015402;28;4259;-67
2022/05/22 07:55:59;;;;;;;;;;;;;;;21.21;46.14;101194.72;5017858;28;4205;-73
2022/05/22 07:58:41;;;;;;;;;;;;;;;21.24;46.07;101210.69;5011009;28;4178;-72
2022/05/22 08:01:20;;;;;;;;;;;;;;;21.26;46.02;101195.66;5010763;28;4210;-72
2022/05/22 08:04:02;;;;;;;;;;;;;;;21.19;45.66;101197.50;5018746;28;4062;-77
2022/05/22 08:06:58;;;;;;;;;;;;;;;21.26;45.72;101192.78;5019225;28;6130;-79
2022/05/22 08:09:39;;;;;;;;;;;;;;;21.28;45.69;101192.84;5012637;28;4227;-70
2022/05/22 08:12:06;;;;;;;;;;;;;;;21.30;46.01;101185.09;5017824;28;4163;-69
2022/05/22 08:14:33;;;;;;;;;;;;;;;21.31;46.08;101188.69;5029434;28;4231;-69
2022/05/22 08:17:01;;;;;;;;;;;;;;;21.33;45.95;101189.53;5016839;28;5306;-69
2022/05/22 08:19:28;;;;;;;;;;;;;;;21.32;46.06;101182.28;5013779;28;5239;-69
2022/05/22 08:22:08;;;;;;;;;;;;;;;21.33;45.94;101189.53;5013213;28;4184;-68
2022/05/22 08:24:53;;;;;;;;;;;;;;;21.37;45.96;101185.34;5010579;28;4300;-62
2022/05/22 08:27:23;;;;;;;;;;;;;;;21.39;45.72;101194.09;5012458;28;6209;-63
2022/05/22 08:29:49;;;;;;;;;;;;;;;21.37;45.49;101191.13;5015605;28;4123;-63
2022/05/22 08:32:22;;;;;;;;;;;;;;;21.33;45.27;101194.56;5025037;28;4261;-69
2022/05/22 08:34:48;;;;;;;;;;;;;;;21.36;45.44;101186.75;5010140;28;4317;-69
2022/05/22 08:37:16;;;;;;;;;;;;;;;21.38;45.53;101193.34;5004954;28;4219;-63
2022/05/22 08:39:42;;;;;;;;;;;;;;;21.41;45.48;101194.22;5011705;28;5409;-64
2022/05/22 08:42:09;;;;;;;;;;;;;;;21.39;45.22;101202.75;4997518;28;4218;-65
2022/05/22 08:44:36;;;;;;;;;;;;;;;21.39;45.20;101191.94;5007591;28;5148;-64
2022/05/22 08:47:21;;;;;;;;;;;;;;;21.41;44.94;101199.97;5011856;28;4252;-66
2022/05/22 08:49:47;;;;;;;;;;;;;;;21.43;44.93;101191.44;5010720;28;5211;-64
2022/05/22 08:52:17;;;;;;;;;;;;;;;21.45;44.92;101192.28;5010140;28;5335;-65
2022/05/22 08:54:53;;;;;;;;;;;;;;;21.49;45.25;101195.34;5014945;28;4170;-61
2022/05/22 09:00:33;;;;;;;;;;;;;;;21.52;45.47;101184.66;5018267;28;4160;-62
2022/05/22 09:03:06;;;;;;;;;;;;;;;21.53;45.49;101180.38;5012811;28;4205;-62
2022/05/22 09:05:33;;;;;;;;;;;;;;;21.50;45.34;101175.94;5018657;28;4304;-60
2022/05/22 09:08:01;;;;;;;;;;;;;;;21.51;45.44;101175.28;5032547;28;5549;-73
2022/05/22 09:10:31;;;;;;;;;;;;;;;21.54;45.52;101173.97;5010756;28;5304;-67
2022/05/22 09:13:09;;;;;;;;;;;;;;;21.56;45.52;101175.47;5018942;28;4201;-67
2022/05/22 09:16:02;;;;;;;;;;;;;;;21.51;44.89;101174.53;5007191;28;6063;-67
2022/05/22 09:18:31;;;;;;;;;;;;;;;21.45;44.50;101177.13;5021356;28;4153;-67
2022/05/22 09:21:04;;;;;;;;;;;;;;;21.44;45.04;101175.63;5014062;28;4198;-69
2022/05/22 09:23:33;;;;;;;;;;;;;;;21.49;44.93;101178.06;5015999;28;5272;-71
2022/05/22 09:26:10;;;;;;;;;;;;;;;21.49;44.75;101172.31;5020141;28;5205;-72
2022/05/22 09:28:44;;;;;;;;;;;;;;;21.48;44.58;101170.06;5016924;28;4238;-73
2022/05/22 09:31:26;;;;;;;;;;;;;;;21.45;44.40;101180.75;5003842;28;4177;-73
2022/05/22 09:34:01;;;;;;;;;;;;;;;21.44;44.48;101187.91;5016197;28;4186;-73
2022/05/22 09:36:37;;;;;;;;;;;;;;;21.42;44.32;101184.19;5014675;28;5308;-73
2022/05/22 09:39:42;;;;;;;;;;;;;;;21.40;44.09;101189.84;5013530;28;4320;-73
2022/05/22 09:42:26;;;;;;;;;;;;;;;21.39;44.33;101191.22;5014889;28;4174;-73
2022/05/22 09:45:01;;;;;;;;;;;;;;;21.40;44.49;101186.97;5014384;28;5214;-74
2022/05/22 09:47:33;;;;;;;;;;;;;;;21.41;44.41;101188.47;5017519;28;5310;-76
2022/05/22 09:50:00;;;;;;;;;;;;;;;21.37;43.89;101188.22;5013680;28;4077;-76
2022/05/22 09:52:45;;;;;;;;;;;;;;;21.37;43.70;101191.13;5018292;28;5467;-74
2022/05/22 09:55:28;;;;;;;;;;;;;;;21.37;43.74;101194.00;5014476;28;4001;-76
2022/05/22 09:58:14;;;;;;;;;;;;;;;21.39;43.86;101185.44;5031259;28;4249;-75
2022/05/22 10:00:52;;;;;;;;;;;;;;;21.40;44.21;101184.06;5011889;28;4164;-75
2022/05/22 10:03:22;;;;;;;;;;;;;;;21.39;44.28;101185.44;5012846;28;4166;-74
2022/05/22 10:06:04;;;;;;;;;;;;;;;21.38;44.43;101189.75;5008122;28;4351;-74
2022/05/22 10:08:44;;;;;;;;;;;;;;;21.40;44.51;101170.44;5016360;28;4361;-73
2022/05/22 10:11:13;;;;;;;;;;;;;;;21.41;44.56;101185.59;5016801;28;3979;-75
2022/05/22 10:13:45;;;;;;;;;;;;;;;21.43;44.31;101189.28;5005926;28;4111;-70
2022/05/22 10:16:27;;;;;;;;;;;;;;;21.47;44.33;101188.75;5012897;28;4179;-69
2022/05/22 10:18:54;;;;;;;;;;;;;;;21.52;44.62;101193.31;5017776;28;4605;-72
2022/05/22 10:21:32;;;;;;;;;;;;;;;21.56;44.68;101192.78;5006665;28;4144;-69
2022/05/22 10:23:58;;;;;;;;;;;;;;;21.56;44.78;101176.22;5011826;28;4512;-68
2022/05/22 10:26:31;;;;;;;;;;;;;;;21.57;44.80;101183.47;5008452;28;4261;-72
2022/05/22 10:29:08;;;;;;;;;;;;;;;21.62;45.04;101190.16;5013522;28;4553;-71
2022/05/22 10:31:34;;;;;;;;;;;;;;;21.70;44.86;101173.25;5009922;28;4669;-71
2022/05/22 10:34:08;;;;;;;;;;;;;;;21.73;45.06;101174.81;5017283;28;4235;-73
2022/05/22 10:36:36;;;;;;;;;;;;;;;21.78;45.50;101170.72;5012499;28;4302;-74
2022/05/22 10:39:04;;;;;;;;;;;;;;;21.77;45.68;101182.91;5014192;28;4143;-72
2022/05/22 10:44:20;;;;;;;;;;;;;;;21.80;46.22;101181.59;5015171;28;4302;-71
2022/05/22 10:46:51;;;;;;;;;;;;;;;21.80;46.35;101191.00;5013924;28;5532;-71
2022/05/22 10:49:18;;;;;;;;;;;;;;;21.82;46.18;101184.59;5011082;28;4255;-74
2022/05/22 10:51:54;;;;;;;;;;;;;;;21.82;46.02;101179.56;5014487;28;4220;-73
2022/05/22 10:54:25;;;;;;;;;;;;;;;21.85;46.17;101174.63;5011778;28;4363;-76
2022/05/22 10:56:54;;;;;;;;;;;;;;;21.87;46.44;101183.38;5010614;28;4844;-73
2022/05/22 10:59:22;;;;;;;;;;;;;;;21.88;46.01;101181.97;5014014;28;4384;-78
2022/05/22 11:02:00;;;;;;;;;;;;;;;21.89;46.23;101180.56;5005981;28;4202;-68
2022/05/22 11:04:33;;;;;;;;;;;;;;;21.90;46.26;101184.97;5009332;28;4145;-75
2022/05/22 11:07:00;;;;;;;;;;;;;;;21.89;46.27;101169.03;5017911;28;4165;-70
2022/05/22 11:09:31;;;;;;;;;;;;;;;21.88;46.26;101176.22;5010585;28;4260;-71
2022/05/22 11:12:07;;;;;;;;;;;;;;;21.85;46.21;101165.97;5010577;28;4244;-71
2022/05/22 11:14:35;;;;;;;;;;;;;;;21.84;46.15;101164.50;5012887;28;4209;-72
2022/05/22 11:17:14;;;;;;;;;;;;;;;21.86;46.42;101167.47;5013934;28;4062;-70
2022/05/22 11:19:42;;;;;;;;;;;;;;;21.85;45.55;101171.75;5011105;28;4231;-77
2022/05/22 11:22:27;;;;;;;;;;;;;;;21.84;45.18;101168.13;5013936;28;4579;-69
2022/05/22 11:24:55;;;;;;;;;;;;;;;21.87;45.09;101160.31;5013120;28;4234;-69
2022/05/22 11:27:38;;;;;;;;;;;;;;;21.85;45.21;101157.31;5026103;28;4192;-69
2022/05/22 11:30:13;;;;;;;;;;;;;;;21.84;45.24;101152.97;5016442;28;4254;-69
2022/05/22 11:32:48;;;;;;;;;;;;;;;21.86;45.35;101158.81;5012952;28;4224;-68
2022/05/22 11:35:14;;;;;;;;;;;;;;;21.85;45.18;101160.22;5014875;28;4305;-69
2022/05/22 11:38:00;;;;;;;;;;;;;;;21.87;45.25;101160.31;5014272;28;5382;-69
2022/05/22 11:40:40;;;;;;;;;;;;;;;21.86;45.17;101156.69;5019255;28;5249;-68
2022/05/22 11:43:18;;;;;;;;;;;;;;;21.87;45.25;101152.38;5009988;28;4241;-68
2022/05/22 11:45:55;;;;;;;;;;;;;;;21.88;44.97;101153.16;5021406;28;4242;-68
2022/05/22 11:48:33;;;;;;;;;;;;;;;21.89;45.12;101152.47;5013199;28;4174;-68
2022/05/22 11:51:10;;;;;;;;;;;;;;;21.90;44.96;101138.84;5012476;28;4170;-69
2022/05/22 11:53:44;;;;;;;;;;;;;;;21.92;44.97;101141.78;5011855;28;4391;-68
2022/05/22 11:56:29;;;;;;;;;;;;;;;21.94;45.04;101147.63;5014486;28;4074;-66
2022/05/22 11:59:15;;;;;;;;;;;;;;;21.94;45.08;101144.75;5011834;28;4178;-65
2022/05/22 12:01:46;;;;;;;;;;;;;;;21.90;44.65;101150.38;5011521;28;4226;-67
2022/05/22 12:04:38;;;;;;;;;;;;;;;21.86;43.82;101138.66;5016346;28;4422;-67
2022/05/22 12:07:13;;;;;;;;;;;;;;;21.85;44.26;101131.38;5016015;28;5243;-67
2022/05/22 12:09:48;;;;;;;;;;;;;;;21.87;44.70;101135.09;5016114;28;4235;-68
2022/05/22 12:12:23;;;;;;;;;;;;;;;21.89;44.74;101120.03;5012117;28;4248;-68
2022/05/22 12:15:01;;;;;;;;;;;;;;;21.92;44.67;101138.91;5015720;28;5263;-67
2022/05/22 12:17:33;;;;;;;;;;;;;;;21.94;44.76;101121.69;5011491;28;5543;-67
2022/05/22 12:23:12;;;;;;;;;;;;;;;21.95;44.95;101123.19;5012380;28;4090;-66
2022/05/22 12:25:52;;;;;;;;;;;;;;;21.95;44.92;101121.03;5009538;28;4499;-67
2022/05/22 12:28:27;;;;;;;;;;;;;;;21.96;45.04;101127.53;5013144;28;4042;-67
2022/05/22 12:30:54;;;;;;;;;;;;;;;21.94;45.03;101124.56;5014097;28;4190;-65
2022/05/22 12:33:21;;;;;;;;;;;;;;;21.96;44.98;101133.31;5015376;28;4690;-66
2022/05/22 12:35:47;;;;;;;;;;;;;;;21.95;44.80;101120.31;5011615;28;4050;-67
2022/05/22 12:38:14;;;;;;;;;;;;;;;21.97;44.71;101114.63;5017395;28;4160;-68
2022/05/22 12:40:48;;;;;;;;;;;;;;;22.00;45.26;101113.31;5007949;28;4199;-64
2022/05/22 12:43:19;;;;;;;;;;;;;;;21.99;45.79;101106.06;5002091;28;4181;-73
2022/05/22 12:45:53;;;;;;;;;;;;;;;22.05;46.19;101114.97;5013597;28;4329;-75
2022/05/22 12:48:32;;;;;;;;;;;;;;;22.07;46.46;101111.44;5008901;28;4098;-78
2022/05/22 12:51:10;;;;;;;;;;;;;;;22.07;46.76;101102.78;5010364;28;5473;-76
2022/05/22 12:53:38;;;;;;;;;;;;;;;22.06;46.94;101110.72;5008013;28;4498;-76
2022/05/22 12:56:24;;;;;;;;;;;;;;;22.09;46.80;101108.66;5012322;28;5564;-77
2022/05/22 12:58:51;;;;;;;;;;;;;;;22.08;47.29;101102.16;5008938;28;4182;-74
2022/05/22 13:01:38;;;;;;;;;;;;;;;22.11;47.46;101100.81;4999839;28;4467;-77
2022/05/22 13:04:23;;;;;;;;;;;;;;;22.14;47.53;101098.78;5012165;28;4168;-74
2022/05/22 13:07:11;;;;;;;;;;;;;;;22.12;47.42;101090.75;5003932;28;4172;-75
2022/05/22 13:09:42;;;;;;;;;;;;;;;22.11;47.78;101091.44;5015284;28;4191;-78
2022/05/22 13:12:26;;;;;;;;;;;;;;;22.13;47.98;101103.06;5013573;28;4238;-82
2022/05/22 13:14:55;;;;;;;;;;;;;;;22.13;48.01;101080.72;5007802;28;4378;-79
2022/05/22 13:17:43;;;;;;;;;;;;;;;22.15;48.15;101077.94;5007543;28;5417;-73
2022/05/22 13:20:21;;;;;;;;;;;;;;;22.18;48.36;101082.38;5006046;28;4204;-78
2022/05/22 13:22:48;;;;;;;;;;;;;;;22.16;48.16;101079.41;5020659;28;4240;-76
2022/05/22 13:25:28;;;;;;;;;;;;;;;22.18;48.37;101081.66;5013355;28;4232;-76
2022/05/22 13:27:54;;;;;;;;;;;;;;;22.20;48.18;101078.13;5006985;28;4140;-75
2022/05/22 13:30:21;;;;;;;;;;;;;;;22.20;47.97;101078.13;5014945;28;4218;-74
2022/05/22 13:33:02;;;;;;;;;;;;;;;22.20;47.82;101075.97;5010752;28;5377;-67
2022/05/22 13:35:48;;;;;;;;;;;;;;;22.16;45.78;101072.91;5006397;28;5254;-67
2022/05/22 13:38:14;;;;;;;;;;;;;;;22.14;43.91;101067.78;5009606;28;4217;-66
2022/05/22 13:40:46;;;;;;;;;;;;;;;22.11;42.66;101066.22;4999670;28;4223;-67